Ostby, North Dakota
Current Conditions -  °F | °C
As of 5:15 PM on Friday 31 Oct 2014 (Local Time) from KRUG Reporting Station
Clear Clear  
Wind Chill: -2°   Ceiling: Unl
Heat Index:   Visibility: 10mi
Dew Point: -10°   Wind: 17mph
Humidity: 38%   Direction: 160°SSE
Pressure: 30.24"   Gusts: 25mph
Location:  48.5496°N, 100.255°W
Report Text: KRUG 312215Z AUTO 16015G22KT 10SM CLR 03/M10 A3024 RMK AO2
Loading
Personal Weather Stations






























Interactive Weather Map
Tropical Storm Tracking
New forecast layout! Learn more

10-Day Weather Forecast

Advertisements
Track Severe Weather on mobile